createdAt,value
2022-12-22T00:03:00.328Z,75673.63
2022-12-22T00:13:23.896Z,75643.25
2022-12-22T00:23:44.792Z,75643.25
2022-12-22T00:34:08.030Z,75621.00
2022-12-22T00:44:30.919Z,75621.00
2022-12-22T00:54:51.543Z,75612.91
2022-12-22T01:05:12.329Z,75612.91
2022-12-22T01:15:39.317Z,75606.84
2022-12-22T01:26:03.509Z,75600.75
2022-12-22T01:36:24.109Z,75584.56
2022-12-22T01:46:56.166Z,75604.81
2022-12-22T01:57:16.763Z,75604.81
2022-12-22T02:08:16.822Z,75606.84
2022-12-22T02:18:59.657Z,75604.81
2022-12-22T02:29:23.797Z,75612.91
2022-12-22T02:40:22.311Z,75608.84
2022-12-22T02:50:49.098Z,75606.84
2022-12-22T03:01:11.895Z,75600.75
2022-12-22T03:11:32.789Z,75592.66
2022-12-22T03:21:53.256Z,75592.66
2022-12-22T03:31:58.070Z,75590.63
2022-12-22T03:42:19.826Z,75572.44
2022-12-22T03:52:24.317Z,75562.31
2022-12-22T04:02:29.762Z,75540.03
2022-12-22T04:12:55.030Z,75529.94
2022-12-22T04:22:57.751Z,75507.66
2022-12-22T04:33:00.418Z,75497.56
2022-12-22T04:43:02.608Z,75475.28
2022-12-22T04:53:05.678Z,75479.34
2022-12-22T05:03:08.571Z,75471.25
2022-12-22T05:13:11.061Z,75483.38
2022-12-22T05:23:13.175Z,75479.34
2022-12-22T05:33:15.419Z,75485.41
2022-12-22T05:43:17.946Z,75483.38
2022-12-22T05:53:20.117Z,75483.38
2022-12-22T06:03:27.081Z,75475.28
2022-12-22T06:13:37.165Z,75487.44
2022-12-22T06:23:43.247Z,75491.47
2022-12-22T06:33:45.783Z,75497.56
2022-12-22T06:43:50.396Z,75481.34
2022-12-22T06:53:57.940Z,75491.47
2022-12-22T07:04:03.018Z,75471.25
2022-12-22T07:14:05.204Z,75463.16
2022-12-22T07:24:07.933Z,75467.19
2022-12-22T07:34:12.198Z,75455.06
2022-12-22T07:44:19.524Z,75420.66
2022-12-22T07:54:21.713Z,75420.66
2022-12-22T08:04:26.155Z,75420.66
2022-12-22T08:14:31.667Z,75394.34
2022-12-22T08:24:38.672Z,75388.28
2022-12-22T08:34:43.455Z,75384.22
2022-12-22T08:44:56.367Z,75303.28
2022-12-22T08:55:02.391Z,75305.31
2022-12-22T09:05:12.821Z,75355.91
2022-12-22T09:15:18.555Z,75384.22
2022-12-22T09:25:20.885Z,75382.19
2022-12-22T09:35:23.010Z,75370.06
2022-12-22T09:45:31.045Z,75374.09
2022-12-22T09:55:38.819Z,75337.69
2022-12-22T10:05:54.154Z,75305.31
2022-12-22T10:15:58.925Z,75303.28
2022-12-22T10:36:33.491Z,75279.00
2022-12-22T10:46:52.593Z,75281.03
2022-12-22T10:57:13.700Z,75268.88
2022-12-22T11:07:19.845Z,75236.50
2022-12-22T11:17:45.104Z,75236.50
2022-12-22T11:27:54.596Z,75216.25
2022-12-22T11:38:28.723Z,75183.88
2022-12-22T11:48:44.344Z,75189.97
2022-12-22T11:59:07.794Z,75159.59
2022-12-22T12:09:34.577Z,75139.38
2022-12-22T12:20:04.169Z,75104.97
2022-12-22T12:30:36.907Z,75102.94
2022-12-22T12:40:41.343Z,75088.78
2022-12-22T12:50:47.460Z,75086.75
2022-12-22T13:00:58.821Z,75123.19
2022-12-22T13:11:01.382Z,75163.66
2022-12-22T13:21:51.664Z,75187.94
2022-12-22T13:31:56.138Z,75185.91
2022-12-22T13:41:58.739Z,75208.16
2022-12-22T13:52:05.721Z,75183.88
2022-12-22T14:02:10.271Z,75151.50
2022-12-22T14:12:20.981Z,75129.25
2022-12-22T14:22:29.623Z,75109.03
2022-12-22T14:32:39.439Z,75090.81
2022-12-22T14:42:44.735Z,75062.47
2022-12-22T14:52:53.336Z,75048.31
2022-12-22T15:03:03.863Z,75048.31
2022-12-22T15:13:11.354Z,75034.16
2022-12-22T15:23:18.678Z,75034.16
2022-12-22T15:33:25.158Z,75040.22
2022-12-22T15:54:01.340Z,75022.00
2022-12-22T16:04:07.426Z,75013.91
2022-12-22T16:14:13.638Z,75003.81
2022-12-22T16:24:22.930Z,75009.88
2022-12-22T16:34:27.318Z,74993.69
2022-12-22T16:44:32.927Z,74993.69
2022-12-22T16:54:37.475Z,74983.56
2022-12-22T17:04:39.584Z,74971.44
2022-12-22T17:14:41.849Z,74971.44
2022-12-22T17:24:44.023Z,74969.41
2022-12-22T17:34:49.106Z,74977.50
2022-12-22T17:44:54.894Z,74977.50
2022-12-22T17:55:02.667Z,74969.41
2022-12-22T18:05:05.241Z,74953.22
2022-12-22T18:15:17.785Z,74930.97
2022-12-22T18:25:26.754Z,74916.78
2022-12-22T18:35:29.270Z,74912.75
2022-12-22T18:45:34.076Z,74888.47
2022-12-22T18:55:38.432Z,74880.38
2022-12-22T19:05:46.004Z,74870.25
2022-12-22T19:15:59.673Z,74868.22
2022-12-22T19:26:08.837Z,74856.09
2022-12-22T19:36:17.837Z,74848.00
2022-12-22T19:46:29.445Z,74845.97
2022-12-22T19:56:31.807Z,74837.88
2022-12-22T20:06:39.114Z,74831.81
2022-12-22T20:16:46.618Z,74811.56
2022-12-22T20:26:54.293Z,74803.47
2022-12-22T20:36:57.675Z,74791.34
2022-12-22T20:46:59.749Z,74787.28
2022-12-22T20:57:01.928Z,74781.22
2022-12-22T21:07:06.283Z,74730.66
2022-12-22T21:17:19.838Z,74758.97
2022-12-22T21:27:22.222Z,74773.13
2022-12-22T21:37:24.949Z,74761.00
2022-12-22T21:47:29.255Z,74754.94
2022-12-22T21:57:36.012Z,74758.97
2022-12-22T22:07:42.575Z,74779.19
2022-12-22T22:17:47.157Z,74787.28
2022-12-22T22:27:52.938Z,74791.34
2022-12-22T22:37:56.119Z,74793.38
2022-12-22T22:48:06.322Z,74789.31
2022-12-22T22:58:14.510Z,74783.25
2022-12-22T23:08:18.778Z,74779.19
2022-12-22T23:18:25.915Z,74779.19
2022-12-22T23:28:28.182Z,74773.13
2022-12-22T23:38:30.278Z,74767.06
2022-12-22T23:48:32.324Z,74758.97
2022-12-22T23:58:34.364Z,74754.94
